createdAt,value
2024-02-04T00:00:31.064Z,9.16
2024-02-04T00:01:31.081Z,9.15
2024-02-04T00:02:30.972Z,9.14
2024-02-04T00:03:31.169Z,9.12
2024-02-04T00:04:31.077Z,9.11
2024-02-04T00:05:30.971Z,9.10
2024-02-04T00:06:31.065Z,9.10
2024-02-04T00:07:31.061Z,9.09
2024-02-04T00:08:31.042Z,9.08
2024-02-04T00:09:32.134Z,9.06
2024-02-04T00:10:31.013Z,9.05
2024-02-04T00:11:30.954Z,9.04
2024-02-04T00:12:31.001Z,9.05
2024-02-04T00:13:31.009Z,9.05
2024-02-04T00:14:30.993Z,9.04
2024-02-04T00:15:30.999Z,9.05
2024-02-04T00:16:31.001Z,9.05
2024-02-04T00:17:31.089Z,9.06
2024-02-04T00:18:31.088Z,9.05
2024-02-04T00:19:31.062Z,9.05
2024-02-04T00:20:30.991Z,9.03
2024-02-04T00:21:31.060Z,9.04
2024-02-04T00:22:31.009Z,9.02
2024-02-04T00:23:31.000Z,9.03
2024-02-04T00:24:31.069Z,9.02
2024-02-04T00:25:31.005Z,9.02
2024-02-04T00:26:31.024Z,9.03
2024-02-04T00:27:31.233Z,9.03
2024-02-04T00:28:31.028Z,9.06
2024-02-04T00:29:31.005Z,9.09
2024-02-04T00:30:31.030Z,9.10
2024-02-04T00:31:30.993Z,9.10
2024-02-04T00:32:31.018Z,9.10
2024-02-04T00:33:31.118Z,9.09
2024-02-04T00:34:31.165Z,9.09
2024-02-04T00:35:30.994Z,9.11
2024-02-04T00:36:31.019Z,9.11
2024-02-04T00:37:30.990Z,9.10
2024-02-04T00:38:31.034Z,9.10
2024-02-04T00:39:31.033Z,9.09
2024-02-04T00:40:31.010Z,9.09
2024-02-04T00:41:31.059Z,9.10
2024-02-04T00:42:31.036Z,9.10
2024-02-04T00:43:31.062Z,9.11
2024-02-04T00:44:31.007Z,9.10
2024-02-04T00:45:31.048Z,9.13
2024-02-04T00:46:31.033Z,9.12
2024-02-04T00:47:31.021Z,9.11
2024-02-04T00:48:31.225Z,9.12
2024-02-04T00:49:31.139Z,9.15
2024-02-04T00:50:31.012Z,9.15
2024-02-04T00:51:31.037Z,9.16
2024-02-04T00:52:31.023Z,9.16
2024-02-04T00:53:31.007Z,9.17
2024-02-04T00:54:31.120Z,9.17
2024-02-04T00:55:31.011Z,9.18
2024-02-04T00:56:31.042Z,9.19
2024-02-04T00:57:31.122Z,9.18
2024-02-04T00:58:31.062Z,9.19
2024-02-04T00:59:31.138Z,9.20
2024-02-04T01:00:31.149Z,9.21
2024-02-04T01:01:31.187Z,9.23
2024-02-04T01:02:31.155Z,9.23
2024-02-04T01:03:31.196Z,9.23
2024-02-04T01:04:31.218Z,9.25
2024-02-04T01:05:31.243Z,9.27
2024-02-04T01:06:34.992Z,9.27
2024-02-04T01:07:31.226Z,9.26
2024-02-04T01:08:31.166Z,9.25
2024-02-04T01:09:31.254Z,9.24
2024-02-04T01:10:31.201Z,9.24
2024-02-04T01:11:31.306Z,9.23
2024-02-04T01:12:31.175Z,9.23
2024-02-04T01:13:31.146Z,9.23
2024-02-04T01:14:31.188Z,9.22
2024-02-04T01:15:31.210Z,9.22
2024-02-04T01:16:31.169Z,9.22
2024-02-04T01:17:31.214Z,9.21
2024-02-04T01:18:31.277Z,9.22
2024-02-04T01:19:31.248Z,9.24
2024-02-04T01:20:31.251Z,9.22
2024-02-04T01:21:31.196Z,9.21
2024-02-04T01:22:31.166Z,9.21
2024-02-04T01:23:31.195Z,9.22
2024-02-04T01:24:31.202Z,9.24
2024-02-04T01:25:31.231Z,9.23
2024-02-04T01:26:31.170Z,9.23
2024-02-04T01:27:31.224Z,9.21
2024-02-04T01:28:31.193Z,9.21
2024-02-04T01:29:31.182Z,9.22
2024-02-04T01:30:31.314Z,9.19
2024-02-04T01:31:31.263Z,9.20
2024-02-04T01:32:31.275Z,9.19
2024-02-04T01:33:31.298Z,9.18
2024-02-04T01:34:31.335Z,9.18
2024-02-04T01:35:31.165Z,9.17
2024-02-04T01:36:31.333Z,9.18
2024-02-04T01:37:31.212Z,9.16
2024-02-04T01:38:31.205Z,9.14
2024-02-04T01:39:31.286Z,9.13
2024-02-04T01:40:31.175Z,9.10
2024-02-04T01:41:31.289Z,9.09
2024-02-04T01:42:31.203Z,9.09
2024-02-04T01:43:31.200Z,9.07
2024-02-04T01:44:31.255Z,9.07
2024-02-04T01:45:31.197Z,9.07
2024-02-04T01:46:31.220Z,9.07
2024-02-04T01:47:31.255Z,9.06
2024-02-04T01:48:31.285Z,9.04
2024-02-04T01:49:31.374Z,9.01
2024-02-04T01:50:31.214Z,9.00
2024-02-04T01:51:31.255Z,9.00
2024-02-04T01:52:31.267Z,8.98
2024-02-04T01:53:31.228Z,8.97
2024-02-04T01:54:31.213Z,8.95
2024-02-04T01:55:31.206Z,8.95
2024-02-04T01:56:31.201Z,8.93
2024-02-04T01:57:31.241Z,8.95
2024-02-04T01:58:31.259Z,8.93
2024-02-04T01:59:31.208Z,8.93
2024-02-04T02:00:31.264Z,8.93
2024-02-04T02:01:31.268Z,8.91
2024-02-04T02:02:31.183Z,8.93
2024-02-04T02:03:31.409Z,8.93
2024-02-04T02:04:31.390Z,8.92
2024-02-04T02:05:31.203Z,8.93
2024-02-04T02:06:31.286Z,8.94
2024-02-04T02:07:31.245Z,8.95
2024-02-04T02:08:31.271Z,8.95
2024-02-04T02:09:31.581Z,8.93
2024-02-04T02:10:31.286Z,8.92
2024-02-04T02:11:31.222Z,8.93
2024-02-04T02:12:31.242Z,8.93
2024-02-04T02:13:31.247Z,8.94
2024-02-04T02:14:31.238Z,8.93
2024-02-04T02:15:31.261Z,8.93
2024-02-04T02:16:31.246Z,8.92
2024-02-04T02:17:31.320Z,8.92
2024-02-04T02:18:31.340Z,8.92
2024-02-04T02:19:31.350Z,8.91
2024-02-04T02:20:31.237Z,8.91
2024-02-04T02:21:31.256Z,8.93
2024-02-04T02:22:31.242Z,8.95
2024-02-04T02:23:31.260Z,8.93
2024-02-04T02:24:31.234Z,8.95
2024-02-04T02:25:31.231Z,8.93
2024-02-04T02:26:31.235Z,8.94
2024-02-04T02:27:31.233Z,8.94
2024-02-04T02:28:31.282Z,8.93
2024-02-04T02:29:31.291Z,8.95
2024-02-04T02:30:31.266Z,8.94
2024-02-04T02:31:39.503Z,8.92
2024-02-04T02:32:31.331Z,8.91
2024-02-04T02:33:31.352Z,8.91
2024-02-04T02:34:38.422Z,8.92
2024-02-04T02:35:31.337Z,8.92
2024-02-04T02:36:31.251Z,8.92
2024-02-04T02:37:31.254Z,8.90
2024-02-04T02:38:31.257Z,8.91
2024-02-04T02:39:31.254Z,8.91
2024-02-04T02:40:31.257Z,8.91
2024-02-04T02:41:31.245Z,8.90
2024-02-04T02:42:31.315Z,8.90
2024-02-04T02:43:31.272Z,8.89
2024-02-04T02:44:31.473Z,8.87
2024-02-04T02:45:31.285Z,8.85
2024-02-04T02:46:31.297Z,8.85
2024-02-04T02:47:31.323Z,8.84
2024-02-04T02:48:31.430Z,8.84
2024-02-04T02:49:31.372Z,8.85
2024-02-04T02:50:31.301Z,8.85
2024-02-04T02:51:31.335Z,8.85
2024-02-04T02:52:31.293Z,8.86
2024-02-04T02:53:31.295Z,8.85
2024-02-04T02:54:31.303Z,8.85
2024-02-04T02:55:31.255Z,8.82
2024-02-04T02:56:31.238Z,8.82
2024-02-04T02:57:31.274Z,8.81
2024-02-04T02:58:31.486Z,8.80
2024-02-04T02:59:31.301Z,8.80
2024-02-04T03:00:31.485Z,8.80
2024-02-04T03:01:31.341Z,8.79
2024-02-04T03:02:31.276Z,8.81
2024-02-04T03:03:31.336Z,8.82
2024-02-04T03:04:31.357Z,8.83
2024-02-04T03:05:31.304Z,8.83
2024-02-04T03:06:31.265Z,8.82
2024-02-04T03:07:31.314Z,8.81
2024-02-04T03:08:31.263Z,8.81
2024-02-04T03:09:31.325Z,8.81
2024-02-04T03:10:31.274Z,8.80
2024-02-04T03:11:31.290Z,8.80
2024-02-04T03:12:31.352Z,8.81
2024-02-04T03:13:31.271Z,8.80
2024-02-04T03:14:31.337Z,8.81
2024-02-04T03:15:31.334Z,8.82
2024-02-04T03:16:31.316Z,8.84
2024-02-04T03:17:31.328Z,8.86
2024-02-04T03:18:31.297Z,8.85
2024-02-04T03:19:31.312Z,8.85
2024-02-04T03:20:31.288Z,8.85
2024-02-04T03:21:31.360Z,8.85
2024-02-04T03:22:31.297Z,8.85
2024-02-04T03:23:31.286Z,8.84
2024-02-04T03:24:31.351Z,8.81
2024-02-04T03:25:31.286Z,8.83
2024-02-04T03:26:31.300Z,8.84
2024-02-04T03:27:31.303Z,8.84
2024-02-04T03:28:31.289Z,8.82
2024-02-04T03:29:31.372Z,8.82
2024-02-04T03:30:31.356Z,8.80
2024-02-04T03:31:31.318Z,8.80
2024-02-04T03:32:31.319Z,8.80
2024-02-04T03:33:31.380Z,8.80
2024-02-04T03:34:31.508Z,8.80
2024-02-04T03:35:31.318Z,8.79
2024-02-04T03:36:31.309Z,8.80
2024-02-04T03:37:31.308Z,8.80
2024-02-04T03:38:31.306Z,8.79
2024-02-04T03:39:31.320Z,8.78
2024-02-04T03:40:31.339Z,8.79
2024-02-04T03:41:31.371Z,8.80
2024-02-04T03:42:31.313Z,8.81
2024-02-04T03:43:31.285Z,8.82
2024-02-04T03:44:31.333Z,8.82
2024-02-04T03:45:31.336Z,8.84
2024-02-04T03:46:31.365Z,8.85
2024-02-04T03:47:31.384Z,8.85
2024-02-04T03:48:31.416Z,8.86
2024-02-04T03:49:31.381Z,8.84
2024-02-04T03:50:31.309Z,8.84
2024-02-04T03:51:31.330Z,8.82
2024-02-04T03:52:31.330Z,8.82
2024-02-04T03:53:31.358Z,8.80
2024-02-04T03:54:31.348Z,8.82
2024-02-04T03:55:31.307Z,8.83
2024-02-04T03:56:31.332Z,8.85
2024-02-04T03:57:31.373Z,8.88
2024-02-04T03:58:31.368Z,8.89
2024-02-04T03:59:31.337Z,8.90
2024-02-04T04:00:31.439Z,8.89
2024-02-04T04:01:31.784Z,8.91
2024-02-04T04:02:31.332Z,8.91
2024-02-04T04:03:31.379Z,8.92
2024-02-04T04:04:31.566Z,8.92
2024-02-04T04:05:31.413Z,8.92
2024-02-04T04:06:31.421Z,8.91
2024-02-04T04:07:31.381Z,8.92
2024-02-04T04:08:31.316Z,8.92
2024-02-04T04:09:31.395Z,8.93
2024-02-04T04:10:31.347Z,8.93
2024-02-04T04:11:31.343Z,8.95
2024-02-04T04:12:31.392Z,8.96
2024-02-04T04:13:31.356Z,8.97
2024-02-04T04:14:31.371Z,8.96
2024-02-04T04:15:31.342Z,8.97
2024-02-04T04:16:31.346Z,8.98
2024-02-04T04:17:31.347Z,8.99
2024-02-04T04:18:31.450Z,9.02
2024-02-04T04:19:31.472Z,9.03
2024-02-04T04:20:31.381Z,9.03
2024-02-04T04:21:31.403Z,9.02
2024-02-04T04:22:31.396Z,9.05
2024-02-04T04:23:31.380Z,9.06
2024-02-04T04:24:31.378Z,9.10
2024-02-04T04:25:31.368Z,9.11
2024-02-04T04:26:31.383Z,9.11
2024-02-04T04:27:31.365Z,9.10
2024-02-04T04:28:31.331Z,9.10
2024-02-04T04:29:31.350Z,9.09
2024-02-04T04:30:31.401Z,9.09
2024-02-04T04:31:31.366Z,9.08
2024-02-04T04:32:31.475Z,9.06
2024-02-04T04:33:31.536Z,9.07
2024-02-04T04:34:31.378Z,9.07
2024-02-04T04:35:31.381Z,9.08
2024-02-04T04:36:31.461Z,9.07
2024-02-04T04:37:31.352Z,9.07
2024-02-04T04:38:31.391Z,9.05
2024-02-04T04:39:31.464Z,9.05
2024-02-04T04:40:31.343Z,9.05
2024-02-04T04:41:31.378Z,9.04
2024-02-04T04:42:31.387Z,9.04
2024-02-04T04:43:31.363Z,9.04
2024-02-04T04:44:31.367Z,9.03
2024-02-04T04:45:31.451Z,9.02
2024-02-04T04:46:31.617Z,9.01
2024-02-04T04:47:31.442Z,9.01
2024-02-04T04:48:31.475Z,9.01
2024-02-04T04:49:31.555Z,9.01
2024-02-04T04:50:31.353Z,9.04
2024-02-04T04:51:31.550Z,9.05
2024-02-04T04:52:31.461Z,9.06
2024-02-04T04:53:31.379Z,9.07
2024-02-04T04:54:31.431Z,9.05
2024-02-04T04:55:31.384Z,9.04
2024-02-04T04:56:31.410Z,9.04
2024-02-04T04:57:31.469Z,9.05
2024-02-04T04:58:31.444Z,9.03
2024-02-04T04:59:31.427Z,9.04
2024-02-04T05:00:31.481Z,9.07
2024-02-04T05:01:31.581Z,9.07
2024-02-04T05:02:31.477Z,9.10
2024-02-04T05:03:31.639Z,9.11
2024-02-04T05:04:31.517Z,9.12
2024-02-04T05:05:31.483Z,9.12
2024-02-04T05:06:31.867Z,9.14
2024-02-04T05:07:31.583Z,9.14
2024-02-04T05:08:31.549Z,9.16
2024-02-04T05:09:31.611Z,9.19
2024-02-04T05:10:31.571Z,9.18
2024-02-04T05:11:31.581Z,9.19
2024-02-04T05:12:31.581Z,9.18
2024-02-04T05:13:31.630Z,9.19
2024-02-04T05:14:31.623Z,9.17
2024-02-04T05:15:31.648Z,9.19
2024-02-04T05:16:31.615Z,9.21
2024-02-04T05:17:31.707Z,9.24
2024-02-04T05:18:31.792Z,9.26
2024-02-04T05:19:31.764Z,9.24
2024-02-04T05:20:31.677Z,9.25
2024-02-04T05:21:31.714Z,9.25
2024-02-04T05:22:31.697Z,9.27
2024-02-04T05:23:31.764Z,9.27
2024-02-04T05:24:31.790Z,9.27
2024-02-04T05:25:31.745Z,9.28
2024-02-04T05:26:31.757Z,9.26
2024-02-04T05:27:31.789Z,9.26
2024-02-04T05:28:31.834Z,9.28
2024-02-04T05:29:31.832Z,9.27
2024-02-04T05:30:31.857Z,9.27
2024-02-04T05:31:31.869Z,9.26
2024-02-04T05:32:31.876Z,9.26
2024-02-04T05:33:31.932Z,9.28
2024-02-04T05:34:32.037Z,9.29
2024-02-04T05:35:31.881Z,9.31
2024-02-04T05:36:31.928Z,9.30
2024-02-04T05:37:31.884Z,9.31
2024-02-04T05:38:31.933Z,9.33
2024-02-04T05:39:31.923Z,9.36
2024-02-04T05:40:31.929Z,9.36
2024-02-04T05:41:31.951Z,9.39
2024-02-04T05:42:31.987Z,9.39
2024-02-04T05:43:31.983Z,9.38
2024-02-04T05:44:31.997Z,9.37
2024-02-04T05:45:32.099Z,9.36
2024-02-04T05:46:32.074Z,9.37
2024-02-04T05:47:32.075Z,9.36
2024-02-04T05:48:32.313Z,9.36
2024-02-04T05:49:32.171Z,9.36
2024-02-04T05:50:32.217Z,9.34
2024-02-04T05:51:32.109Z,9.33
2024-02-04T05:52:32.074Z,9.32
2024-02-04T05:53:32.099Z,9.31
2024-02-04T05:54:32.143Z,9.32
2024-02-04T05:55:32.088Z,9.32
2024-02-04T05:56:32.136Z,9.32
2024-02-04T05:57:32.175Z,9.33
2024-02-04T05:58:32.159Z,9.33
2024-02-04T05:59:32.193Z,9.32
2024-02-04T06:00:32.175Z,9.31
2024-02-04T06:01:32.216Z,9.30
2024-02-04T06:02:32.264Z,9.29
2024-02-04T06:03:32.271Z,9.26
2024-02-04T06:04:32.332Z,9.26
2024-02-04T06:05:32.252Z,9.25
2024-02-04T06:06:32.426Z,9.27
2024-02-04T06:07:32.236Z,9.26
2024-02-04T06:08:32.288Z,9.28
2024-02-04T06:09:32.438Z,9.28
2024-02-04T06:10:32.297Z,9.28
2024-02-04T06:11:32.331Z,9.26
2024-02-04T06:12:32.335Z,9.26
2024-02-04T06:13:32.328Z,9.26
2024-02-04T06:14:32.380Z,9.26
2024-02-04T06:15:32.389Z,9.30
2024-02-04T06:16:32.350Z,9.31
2024-02-04T06:17:32.374Z,9.32
2024-02-04T06:18:32.482Z,9.32
2024-02-04T06:19:32.484Z,9.34
2024-02-04T06:20:32.387Z,9.38
2024-02-04T06:21:32.471Z,9.39
2024-02-04T06:22:32.424Z,9.40
2024-02-04T06:23:32.448Z,9.39
2024-02-04T06:24:32.611Z,9.40
2024-02-04T06:25:32.526Z,9.39
2024-02-04T06:26:32.466Z,9.40
2024-02-04T06:27:32.555Z,9.39
2024-02-04T06:28:32.555Z,9.39
2024-02-04T06:29:32.778Z,9.37
2024-02-04T06:30:32.583Z,9.37
2024-02-04T06:31:32.525Z,9.34
2024-02-04T06:32:32.568Z,9.35
2024-02-04T06:33:32.728Z,9.34
2024-02-04T06:34:33.128Z,9.32
2024-02-04T06:35:32.621Z,9.31
2024-02-04T06:36:32.985Z,9.31
2024-02-04T06:37:32.726Z,9.28
2024-02-04T06:38:32.669Z,9.26
2024-02-04T06:39:32.684Z,9.28
2024-02-04T06:40:32.714Z,9.27
2024-02-04T06:41:32.686Z,9.28
2024-02-04T06:42:32.737Z,9.26
2024-02-04T06:43:36.621Z,9.28
2024-02-04T06:44:32.673Z,9.28
2024-02-04T06:45:32.749Z,9.31
2024-02-04T06:46:32.723Z,9.31
2024-02-04T06:47:32.719Z,9.29
2024-02-04T06:48:32.828Z,9.32
2024-02-04T06:49:32.874Z,9.33
2024-02-04T06:50:32.832Z,9.34
2024-02-04T06:51:32.753Z,9.36
2024-02-04T06:52:32.680Z,9.38
2024-02-04T06:53:32.712Z,9.40
2024-02-04T06:54:32.728Z,9.42
2024-02-04T06:55:32.694Z,9.43
2024-02-04T06:56:32.730Z,9.42
2024-02-04T06:57:32.728Z,9.40
2024-02-04T06:58:32.730Z,9.41
2024-02-04T06:59:32.683Z,9.41
2024-02-04T07:00:32.728Z,9.40
2024-02-04T07:01:32.826Z,9.40
2024-02-04T07:02:32.731Z,9.39
2024-02-04T07:03:32.823Z,9.40
2024-02-04T07:04:32.768Z,9.38
2024-02-04T07:05:32.742Z,9.38
2024-02-04T07:06:32.803Z,9.36
2024-02-04T07:07:32.731Z,9.33
2024-02-04T07:08:32.751Z,9.30
2024-02-04T07:09:32.768Z,9.28
2024-02-04T07:10:32.742Z,9.29
2024-02-04T07:12:10.271Z,9.29
2024-02-04T07:13:10.266Z,9.29
2024-02-04T07:14:10.195Z,9.27
2024-02-04T07:15:10.197Z,9.27
2024-02-04T07:16:10.273Z,9.27
2024-02-04T07:17:10.232Z,9.27
2024-02-04T07:18:10.244Z,9.28
2024-02-04T07:19:10.282Z,9.27
2024-02-04T07:20:10.252Z,9.30
2024-02-04T07:21:10.230Z,9.28
2024-02-04T07:22:10.228Z,9.32
2024-02-04T07:23:10.239Z,9.34
2024-02-04T07:24:10.215Z,9.36
2024-02-04T07:25:10.439Z,9.36
2024-02-04T07:26:10.364Z,9.37
2024-02-04T07:27:10.362Z,9.36
2024-02-04T07:28:10.449Z,9.36
2024-02-04T07:29:10.416Z,9.36
2024-02-04T07:30:10.395Z,9.35
2024-02-04T07:31:10.486Z,9.36
2024-02-04T07:32:10.437Z,9.36
2024-02-04T07:33:10.565Z,9.36
2024-02-04T07:34:10.534Z,9.34
2024-02-04T07:35:10.689Z,9.32
2024-02-04T07:36:10.487Z,9.30
2024-02-04T07:37:10.633Z,9.28
2024-02-04T07:38:10.541Z,9.26
2024-02-04T07:39:10.538Z,9.23
2024-02-04T07:40:10.559Z,9.23
2024-02-04T07:41:10.568Z,9.21
2024-02-04T07:42:10.560Z,9.20
2024-02-04T07:43:10.633Z,9.19
2024-02-04T07:44:10.600Z,9.20
2024-02-04T07:45:10.752Z,9.21
2024-02-04T07:46:10.649Z,9.23
2024-02-04T07:47:10.614Z,9.21
2024-02-04T07:48:10.752Z,9.22
2024-02-04T07:49:10.720Z,9.25
2024-02-04T07:50:10.968Z,9.28
2024-02-04T07:51:10.670Z,9.29
2024-02-04T07:52:10.791Z,9.32
2024-02-04T07:53:10.666Z,9.31
2024-02-04T07:54:10.697Z,9.32
2024-02-04T07:55:10.815Z,9.31
2024-02-04T07:56:10.701Z,9.30
2024-02-04T07:57:10.753Z,9.33
2024-02-04T07:58:10.784Z,9.32
2024-02-04T07:59:10.758Z,9.34
2024-02-04T08:00:10.915Z,9.34
2024-02-04T08:01:10.900Z,9.35
2024-02-04T08:02:10.838Z,9.36
2024-02-04T08:03:10.822Z,9.36
2024-02-04T08:04:10.878Z,9.36
2024-02-04T08:05:10.874Z,9.37
2024-02-04T08:06:10.843Z,9.35
2024-02-04T08:07:10.904Z,9.36
2024-02-04T08:08:10.980Z,9.38
2024-02-04T08:09:10.895Z,9.40
2024-02-04T08:10:11.087Z,9.43
2024-02-04T08:11:11.003Z,9.45
2024-02-04T08:12:10.914Z,9.49
2024-02-04T08:13:11.051Z,9.47
2024-02-04T08:14:10.955Z,9.49
2024-02-04T08:15:10.982Z,9.52
2024-02-04T08:16:11.074Z,9.53
2024-02-04T08:17:10.967Z,9.55
2024-02-04T08:18:11.000Z,9.55
2024-02-04T08:19:11.102Z,9.58
2024-02-04T08:20:11.103Z,9.56
2024-02-04T08:21:11.055Z,9.57
2024-02-04T08:22:11.056Z,9.58
2024-02-04T08:23:11.033Z,9.60
2024-02-04T08:24:11.080Z,9.60
2024-02-04T08:25:11.211Z,9.61
2024-02-04T08:26:11.124Z,9.61
2024-02-04T08:27:11.124Z,9.62
2024-02-04T08:28:11.163Z,9.65
2024-02-04T08:29:11.146Z,9.66
2024-02-04T08:30:11.135Z,9.68
2024-02-04T08:31:11.319Z,9.70
2024-02-04T08:32:11.158Z,9.69
2024-02-04T08:33:11.215Z,9.71
2024-02-04T08:34:11.285Z,9.73
2024-02-04T08:35:11.404Z,9.75
2024-02-04T08:36:11.212Z,9.75
2024-02-04T08:37:11.310Z,9.79
2024-02-04T08:38:11.239Z,9.82
2024-02-04T08:39:11.261Z,9.84
2024-02-04T08:40:11.354Z,9.85
2024-02-04T08:41:11.238Z,9.89
2024-02-04T08:42:11.293Z,9.92
2024-02-04T08:43:11.355Z,9.94
2024-02-04T08:44:16.068Z,9.93
2024-02-04T08:45:11.312Z,9.94
2024-02-04T08:46:14.072Z,9.96
2024-02-04T08:47:11.836Z,9.96
2024-02-04T08:48:11.365Z,9.96
2024-02-04T08:49:11.331Z,9.96
2024-02-04T08:50:11.321Z,9.96
2024-02-04T08:51:11.351Z,9.96
2024-02-04T08:52:11.430Z,9.97
2024-02-04T08:53:11.442Z,9.96
2024-02-04T08:54:11.304Z,9.93
2024-02-04T08:55:11.404Z,9.90
2024-02-04T08:56:11.342Z,9.90
2024-02-04T08:57:11.324Z,9.91
2024-02-04T08:58:11.457Z,9.88
2024-02-04T08:59:11.317Z,9.87
2024-02-04T09:00:11.320Z,9.87
2024-02-04T09:01:11.403Z,9.86
2024-02-04T09:02:11.776Z,9.86
2024-02-04T09:03:11.405Z,9.85
2024-02-04T09:04:11.427Z,9.84
2024-02-04T09:05:11.339Z,9.84
2024-02-04T09:06:11.338Z,9.78
2024-02-04T09:07:11.516Z,9.79
2024-02-04T09:08:11.306Z,9.76
2024-02-04T09:09:11.363Z,9.73
2024-02-04T09:10:11.390Z,9.72
2024-02-04T09:11:11.310Z,9.69
2024-02-04T09:12:11.366Z,9.66
2024-02-04T09:13:11.425Z,9.66
2024-02-04T09:14:11.435Z,9.66
2024-02-04T09:15:11.345Z,9.66
2024-02-04T09:16:11.398Z,9.66
2024-02-04T09:17:11.453Z,9.68
2024-02-04T09:18:11.530Z,9.70
2024-02-04T09:19:11.507Z,9.72
2024-02-04T09:20:11.460Z,9.73
2024-02-04T09:21:11.441Z,9.81
2024-02-04T09:22:11.441Z,9.84
2024-02-04T09:23:11.424Z,9.89
2024-02-04T09:24:11.378Z,9.93
2024-02-04T09:25:11.400Z,9.99
2024-02-04T09:26:11.399Z,10.00
2024-02-04T09:27:11.535Z,10.02
2024-02-04T09:28:11.492Z,10.04
2024-02-04T09:29:11.453Z,10.06
2024-02-04T09:30:11.390Z,10.08
2024-02-04T09:31:11.606Z,10.09
2024-02-04T09:32:11.460Z,10.12
2024-02-04T09:33:11.562Z,10.14
2024-02-04T09:34:11.558Z,10.17
2024-02-04T09:35:11.707Z,10.20
2024-02-04T09:36:11.632Z,10.22
2024-02-04T09:37:11.909Z,10.21
2024-02-04T09:38:14.372Z,10.23
2024-02-04T09:39:11.372Z,10.27
2024-02-04T09:40:11.664Z,10.29
2024-02-04T09:41:11.375Z,10.32
2024-02-04T09:42:11.348Z,10.35
2024-02-04T09:43:11.473Z,10.36
2024-02-04T09:44:11.374Z,10.38
2024-02-04T09:45:11.409Z,10.37
2024-02-04T09:46:11.425Z,10.39
2024-02-04T09:47:11.400Z,10.40
2024-02-04T09:48:11.495Z,10.40
2024-02-04T09:49:11.554Z,10.39
2024-02-04T09:50:11.512Z,10.38
2024-02-04T09:51:11.418Z,10.38
2024-02-04T09:52:11.474Z,10.38
2024-02-04T09:53:11.383Z,10.39
2024-02-04T09:54:11.450Z,10.34
2024-02-04T09:55:11.458Z,10.33
2024-02-04T09:56:11.483Z,10.31
2024-02-04T09:57:11.487Z,10.29
2024-02-04T09:58:11.413Z,10.25
2024-02-04T09:59:11.414Z,10.21
2024-02-04T10:00:11.446Z,10.17
2024-02-04T10:01:11.590Z,10.12
2024-02-04T10:02:11.530Z,10.08
2024-02-04T10:03:11.602Z,10.07
2024-02-04T10:04:11.621Z,10.07
2024-02-04T10:05:11.659Z,10.06
2024-02-04T10:06:11.536Z,10.10
2024-02-04T10:07:11.554Z,10.11
2024-02-04T10:08:11.487Z,10.11
2024-02-04T10:09:11.448Z,10.15
2024-02-04T10:10:11.544Z,10.20
2024-02-04T10:11:11.530Z,10.23
2024-02-04T10:12:11.489Z,10.26
2024-02-04T10:13:11.437Z,10.30
2024-02-04T10:14:11.395Z,10.30
2024-02-04T10:15:11.410Z,10.29
2024-02-04T10:16:11.565Z,10.27
2024-02-04T10:17:11.396Z,10.24
2024-02-04T10:18:11.492Z,10.21
2024-02-04T10:19:11.426Z,10.14
2024-02-04T10:20:11.481Z,10.11
2024-02-04T10:21:11.482Z,10.09
2024-02-04T10:22:11.497Z,10.06
2024-02-04T10:23:11.411Z,10.04
2024-02-04T10:24:11.461Z,10.02
2024-02-04T10:25:11.481Z,10.03
2024-02-04T10:26:11.415Z,10.02
2024-02-04T10:27:16.043Z,10.01
2024-02-04T10:28:11.456Z,10.00
2024-02-04T10:29:11.417Z,10.00
2024-02-04T10:30:11.407Z,10.01
2024-02-04T10:31:11.749Z,10.03
2024-02-04T10:32:11.431Z,10.04
2024-02-04T10:33:11.533Z,10.04
2024-02-04T10:34:11.553Z,10.05
2024-02-04T10:35:11.437Z,10.04
2024-02-04T10:36:11.599Z,10.02
2024-02-04T10:37:11.485Z,10.01
2024-02-04T10:38:11.420Z,9.99
2024-02-04T10:39:11.401Z,9.98
2024-02-04T10:40:11.467Z,9.97
2024-02-04T10:41:11.426Z,9.95
2024-02-04T10:42:11.474Z,9.95
2024-02-04T10:43:11.531Z,9.95
2024-02-04T10:44:11.415Z,9.96
2024-02-04T10:45:11.450Z,9.95
2024-02-04T10:46:11.688Z,9.93
2024-02-04T10:47:11.433Z,9.94
2024-02-04T10:48:11.478Z,9.93
2024-02-04T10:49:11.489Z,9.91
2024-02-04T10:50:11.483Z,9.87
2024-02-04T10:51:11.467Z,9.86
2024-02-04T10:52:11.548Z,9.87
2024-02-04T10:53:11.440Z,9.89
2024-02-04T10:54:11.435Z,9.88
2024-02-04T10:55:11.642Z,9.86
2024-02-04T10:56:11.544Z,9.87
2024-02-04T10:57:11.477Z,9.90
2024-02-04T10:58:11.506Z,9.92
2024-02-04T10:59:11.456Z,9.94
2024-02-04T11:00:11.438Z,9.96
2024-02-04T11:01:11.564Z,9.95
2024-02-04T11:02:11.433Z,9.95
2024-02-04T11:03:11.431Z,9.97
2024-02-04T11:04:11.527Z,9.99
2024-02-04T11:05:11.537Z,9.97
2024-02-04T11:06:11.562Z,9.99
2024-02-04T11:07:11.457Z,9.98
2024-02-04T11:08:11.467Z,10.00
2024-02-04T11:09:11.441Z,10.02
2024-02-04T11:10:11.511Z,10.02
2024-02-04T11:11:11.470Z,10.04
2024-02-04T11:12:11.485Z,10.07
2024-02-04T11:13:11.633Z,10.10
2024-02-04T11:14:11.458Z,10.09
2024-02-04T11:15:11.478Z,10.10
2024-02-04T11:16:11.526Z,10.10
2024-02-04T11:17:11.474Z,10.08
2024-02-04T11:18:11.658Z,10.07
2024-02-04T11:19:11.505Z,10.06
2024-02-04T11:20:11.491Z,10.08
2024-02-04T11:21:11.453Z,10.06
2024-02-04T11:22:11.500Z,10.04
2024-02-04T11:23:11.473Z,10.04
2024-02-04T11:24:11.455Z,10.03
2024-02-04T11:25:11.584Z,10.05
2024-02-04T11:26:11.466Z,10.05
2024-02-04T11:27:11.475Z,10.06
2024-02-04T11:28:11.533Z,10.08
2024-02-04T11:29:11.490Z,10.10
2024-02-04T11:30:11.479Z,10.09
2024-02-04T11:31:11.546Z,10.09
2024-02-04T11:32:11.506Z,10.12
2024-02-04T11:33:11.635Z,10.13
2024-02-04T11:34:11.581Z,10.14
2024-02-04T11:35:11.617Z,10.14
2024-02-04T11:36:11.600Z,10.11
2024-02-04T11:37:11.539Z,10.10
2024-02-04T11:38:11.598Z,10.11
2024-02-04T11:39:11.531Z,10.11
2024-02-04T11:40:11.595Z,10.11
2024-02-04T11:41:11.523Z,10.11
2024-02-04T11:42:11.512Z,10.12
2024-02-04T11:43:11.655Z,10.14
2024-02-04T11:44:11.602Z,10.14
2024-02-04T11:45:11.584Z,10.14
2024-02-04T11:46:11.572Z,10.15
2024-02-04T11:47:11.514Z,10.18
2024-02-04T11:48:11.703Z,10.15
2024-02-04T11:49:11.708Z,10.12
2024-02-04T11:50:12.350Z,10.10
2024-02-04T11:51:11.656Z,10.10
2024-02-04T11:52:11.524Z,10.12
2024-02-04T11:53:11.511Z,10.10
2024-02-04T11:54:11.513Z,10.08
2024-02-04T11:55:11.545Z,10.07
2024-02-04T11:56:11.616Z,10.09
2024-02-04T11:57:11.501Z,10.10
2024-02-04T11:58:11.535Z,10.10
2024-02-04T11:59:11.536Z,10.14
2024-02-04T12:00:11.788Z,10.14
2024-02-04T12:01:13.054Z,10.10
2024-02-04T12:02:11.538Z,10.11
2024-02-04T12:03:11.503Z,10.14
2024-02-04T12:04:11.550Z,10.16
2024-02-04T12:05:11.523Z,10.19
2024-02-04T12:06:11.524Z,10.15
2024-02-04T12:07:11.632Z,10.10
2024-02-04T12:08:11.577Z,10.07
2024-02-04T12:09:11.557Z,10.05
2024-02-04T12:10:11.614Z,10.05
2024-02-04T12:11:11.542Z,10.03
2024-02-04T12:12:11.511Z,10.03
2024-02-04T12:13:11.681Z,10.01
2024-02-04T12:14:11.508Z,10.01
2024-02-04T12:15:11.510Z,10.00
2024-02-04T12:17:11.552Z,9.99
2024-02-04T12:18:12.220Z,9.99
2024-02-04T12:19:11.596Z,9.99
2024-02-04T12:20:11.699Z,10.00
2024-02-04T12:21:11.549Z,10.00
2024-02-04T12:22:11.582Z,10.01
2024-02-04T12:23:11.554Z,10.00
2024-02-04T12:24:11.530Z,9.98
2024-02-04T12:25:11.634Z,9.94
2024-02-04T12:26:11.564Z,9.94
2024-02-04T12:27:11.522Z,9.92
2024-02-04T12:28:11.678Z,9.92
2024-02-04T12:29:11.566Z,9.91
2024-02-04T12:30:11.556Z,9.93
2024-02-04T12:31:11.570Z,9.93
2024-02-04T12:32:11.543Z,9.94
2024-02-04T12:33:11.646Z,9.97
2024-02-04T12:34:11.683Z,9.98
2024-02-04T12:35:11.561Z,10.00
2024-02-04T12:36:11.589Z,9.98
2024-02-04T12:37:11.605Z,9.98
2024-02-04T12:38:11.542Z,9.99
2024-02-04T12:39:11.559Z,9.99
2024-02-04T12:40:11.621Z,9.96
2024-02-04T12:41:11.565Z,9.97
2024-02-04T12:42:11.556Z,9.99
2024-02-04T12:43:11.605Z,10.02
2024-02-04T12:44:11.585Z,10.06
2024-02-04T12:45:11.574Z,10.07
2024-02-04T12:46:11.658Z,10.08
2024-02-04T12:47:11.598Z,10.09
2024-02-04T12:48:11.595Z,10.11
2024-02-04T12:49:11.626Z,10.13
2024-02-04T12:50:11.607Z,10.15
2024-02-04T12:51:11.571Z,10.14
2024-02-04T12:52:11.725Z,10.17
2024-02-04T12:53:11.588Z,10.14
2024-02-04T12:54:11.591Z,10.17
2024-02-04T12:55:11.623Z,10.19
2024-02-04T12:56:11.565Z,10.20
2024-02-04T12:57:11.586Z,10.20
2024-02-04T12:58:11.642Z,10.21
2024-02-04T12:59:11.608Z,10.22
2024-02-04T13:00:11.568Z,10.25
2024-02-04T13:01:11.709Z,10.24
2024-02-04T13:02:11.629Z,10.24
2024-02-04T13:03:11.600Z,10.24
2024-02-04T13:04:11.674Z,10.26
2024-02-04T13:05:11.670Z,10.27
2024-02-04T13:06:11.616Z,10.29
2024-02-04T13:07:11.720Z,10.29
2024-02-04T13:08:11.606Z,10.32
2024-02-04T13:09:11.610Z,10.34
2024-02-04T13:10:11.785Z,10.33
2024-02-04T13:11:11.721Z,10.33
2024-02-04T13:12:11.601Z,10.34
2024-02-04T13:13:11.905Z,10.34
2024-02-04T13:14:11.598Z,10.35